East Grand Forks, Minnesota
Current Conditions -  °F | °C
As of 7:31 PM on Thursday 27 Nov 2014 (Local Time) from KGFK Reporting Station
Light Snow Light Snow  
Wind Chill: -7°   Ceiling: 2400
Heat Index:   Visibility: 1.7mi
Dew Point:   Wind: 9mph
Humidity: 72%   Direction: 160°SSE
Pressure: 30.22"   Gusts: NA
Location:  47.93°N, 97.02°W
Report Text: KGFK 280131Z 16008KT 1 3/4SM -SN OVC024 M14/M18 A3022 RMK AO2 TWR VIS 2 1/2 P0000
Loading
Personal Weather Stations






























Interactive Weather Map New forecast layout! Learn more

10-Day Weather Forecast

Advertisements
Track Severe Weather on mobile